createdAt,value
2022-09-23T00:01:19.133Z,2.58
2022-09-23T00:03:46.496Z,2.35
2022-09-23T00:06:19.228Z,2.30
2022-09-23T00:08:46.495Z,2.50
2022-09-23T00:11:16.171Z,2.85
2022-09-23T00:13:45.137Z,2.15
2022-09-23T00:16:14.735Z,2.13
2022-09-23T00:18:42.397Z,2.47
2022-09-23T00:21:12.575Z,2.50
2022-09-23T00:23:40.533Z,2.30
2022-09-23T00:26:09.425Z,2.35
2022-09-23T00:28:45.840Z,2.47
2022-09-23T00:31:15.512Z,5.97
2022-09-23T00:33:42.746Z,2.30
2022-09-23T00:36:12.049Z,2.40
2022-09-23T00:38:38.942Z,2.55
2022-09-23T00:41:06.351Z,2.58
2022-09-23T00:43:42.496Z,2.38
2022-09-23T00:46:13.576Z,2.10
2022-09-23T00:48:42.773Z,2.42
2022-09-23T00:51:14.513Z,2.28
2022-09-23T00:53:41.730Z,2.42
2022-09-23T00:56:11.778Z,2.20
2022-09-23T00:58:40.941Z,3.17
2022-09-23T01:01:08.059Z,2.47
2022-09-23T01:03:35.151Z,2.33
2022-09-23T01:06:01.902Z,2.17
2022-09-23T01:08:29.090Z,2.45
2022-09-23T01:11:22.996Z,2.65
2022-09-23T01:14:22.018Z,2.35
2022-09-23T01:16:58.208Z,3.15
2022-09-23T01:19:51.364Z,2.72
2022-09-23T01:22:48.169Z,2.67
2022-09-23T01:25:33.265Z,2.58
2022-09-23T01:28:20.689Z,2.25
2022-09-23T01:30:59.744Z,3.63
2022-09-23T01:33:45.281Z,3.22
2022-09-23T01:36:39.485Z,2.55
2022-09-23T01:39:37.187Z,2.65
2022-09-23T01:42:22.942Z,2.22
2022-09-23T01:44:59.944Z,3.63
2022-09-23T01:47:36.219Z,2.60
2022-09-23T01:50:44.021Z,2.80
2022-09-23T01:53:20.757Z,2.65
2022-09-23T01:55:57.253Z,3.25
2022-09-23T01:58:45.121Z,3.58
2022-09-23T02:01:18.561Z,3.25
2022-09-23T02:03:51.164Z,3.25
2022-09-23T02:06:23.280Z,2.90
2022-09-23T02:09:00.163Z,3.13
2022-09-23T02:11:27.603Z,2.97
2022-09-23T02:14:06.902Z,2.95
2022-09-23T02:16:41.153Z,2.47
2022-09-23T02:19:11.506Z,3.30
2022-09-23T02:21:42.085Z,4.05
2022-09-23T02:24:16.768Z,2.97
2022-09-23T02:26:54.934Z,3.20
2022-09-23T02:29:29.359Z,2.55
2022-09-23T02:32:46.661Z,3.17
2022-09-23T02:35:18.078Z,2.47
2022-09-23T02:38:01.783Z,2.47
2022-09-23T02:40:40.913Z,2.97
2022-09-23T02:43:10.386Z,2.90
2022-09-23T02:45:39.443Z,2.35
2022-09-23T02:48:14.900Z,2.30
2022-09-23T02:50:42.234Z,2.53
2022-09-23T02:53:09.078Z,2.42
2022-09-23T02:55:36.128Z,2.10
2022-09-23T02:58:05.391Z,3.33
2022-09-23T03:00:38.568Z,2.88
2022-09-23T03:03:40.782Z,3.30
2022-09-23T03:06:27.482Z,2.83
2022-09-23T03:09:13.201Z,2.60
2022-09-23T03:11:46.997Z,2.75
2022-09-23T03:14:39.209Z,4.25
2022-09-23T03:17:19.956Z,3.63
2022-09-23T03:20:06.978Z,2.90
2022-09-23T03:22:39.358Z,2.72
2022-09-23T03:25:10.778Z,3.40
2022-09-23T03:27:39.138Z,3.78
2022-09-23T03:30:07.517Z,3.30
2022-09-23T03:32:36.437Z,3.00
2022-09-23T03:35:05.328Z,3.75
2022-09-23T03:37:41.029Z,3.72
2022-09-23T03:40:15.518Z,3.50
2022-09-23T03:42:42.565Z,3.30
2022-09-23T03:45:17.029Z,2.90
2022-09-23T03:47:44.186Z,3.45
2022-09-23T03:50:13.396Z,2.97
2022-09-23T03:52:40.487Z,3.95
2022-09-23T03:55:08.095Z,3.55
2022-09-23T03:57:34.988Z,3.50
2022-09-23T04:00:02.084Z,2.92
2022-09-23T04:02:39.138Z,3.17
2022-09-23T04:05:07.191Z,2.90
2022-09-23T04:07:34.195Z,2.83
2022-09-23T04:10:00.965Z,2.92
2022-09-23T04:12:27.668Z,3.65
2022-09-23T04:14:54.391Z,3.53
2022-09-23T04:17:21.112Z,3.50
2022-09-23T04:19:47.835Z,3.53
2022-09-23T04:22:14.685Z,2.80
2022-09-23T04:24:41.318Z,3.45
2022-09-23T04:27:07.933Z,4.15
2022-09-23T04:29:34.633Z,4.32
2022-09-23T04:32:02.561Z,3.00
2022-09-23T04:34:29.280Z,3.97
2022-09-23T04:36:55.985Z,3.03
2022-09-23T04:39:22.678Z,2.83
2022-09-23T04:41:49.444Z,3.55
2022-09-23T04:44:16.416Z,3.75
2022-09-23T04:46:47.529Z,3.88
2022-09-23T04:49:15.738Z,3.75
2022-09-23T04:51:43.747Z,4.00
2022-09-23T04:54:11.975Z,3.90
2022-09-23T04:56:39.884Z,3.25
2022-09-23T04:59:07.471Z,3.22
2022-09-23T05:01:36.256Z,3.35
2022-09-23T05:04:07.200Z,3.50
2022-09-23T05:06:35.289Z,3.60
2022-09-23T05:09:05.129Z,4.63
2022-09-23T05:11:32.141Z,3.72
2022-09-23T05:13:59.237Z,4.72
2022-09-23T05:16:27.233Z,4.57
2022-09-23T05:18:54.453Z,4.20
2022-09-23T05:21:23.393Z,4.63
2022-09-23T05:23:55.569Z,3.83
2022-09-23T05:26:25.396Z,3.42
2022-09-23T05:28:53.081Z,4.57
2022-09-23T05:31:29.927Z,4.13
2022-09-23T05:34:00.857Z,4.40
2022-09-23T05:36:33.077Z,4.47
2022-09-23T05:39:11.059Z,6.75
2022-09-23T05:41:38.267Z,7.25
2022-09-23T05:44:08.000Z,5.68
2022-09-23T05:46:38.133Z,5.10
2022-09-23T05:49:06.073Z,4.20
2022-09-23T05:51:38.364Z,4.38
2022-09-23T05:54:05.780Z,3.70
2022-09-23T05:56:36.589Z,4.47
2022-09-23T05:59:04.836Z,3.60
2022-09-23T06:01:35.356Z,4.50
2022-09-23T06:04:15.902Z,9.02
2022-09-23T06:06:44.317Z,8.27
2022-09-23T06:09:14.835Z,6.93
2022-09-23T06:11:47.389Z,9.65
2022-09-23T06:14:17.223Z,6.80
2022-09-23T06:16:50.901Z,5.63
2022-09-23T06:19:29.089Z,6.95
2022-09-23T06:22:04.367Z,8.27
2022-09-23T06:24:56.334Z,7.72
2022-09-23T06:27:54.844Z,6.95
2022-09-23T06:30:45.665Z,6.30
2022-09-23T06:33:48.408Z,6.07
2022-09-23T06:36:47.778Z,6.45
2022-09-23T06:39:35.766Z,4.32
2022-09-23T06:42:29.485Z,4.18
2022-09-23T06:45:03.354Z,4.68
2022-09-23T06:50:25.814Z,4.03
2022-09-23T06:53:19.384Z,4.25
2022-09-23T06:55:49.065Z,3.92
2022-09-23T07:09:01.062Z,3.85
2022-09-23T07:11:48.893Z,4.63
2022-09-23T07:18:10.506Z,4.43
2022-09-23T07:20:58.046Z,6.00
2022-09-23T07:23:25.753Z,5.00
2022-09-23T07:26:01.068Z,4.70
2022-09-23T07:28:28.998Z,4.38
2022-09-23T07:31:39.505Z,3.90
2022-09-23T07:34:19.114Z,4.30
2022-09-23T07:36:55.841Z,3.28
2022-09-23T07:39:31.242Z,3.00
2022-09-23T07:42:18.165Z,3.28
2022-09-23T07:44:45.270Z,2.90
2022-09-23T07:47:14.106Z,4.22
2022-09-23T07:49:41.397Z,2.90
2022-09-23T07:52:24.913Z,2.78
2022-09-23T07:54:51.749Z,2.92
2022-09-23T07:57:26.576Z,3.17
2022-09-23T07:59:53.290Z,3.15
2022-09-23T08:02:33.873Z,3.10
2022-09-23T08:05:00.681Z,3.42
2022-09-23T08:07:37.529Z,2.63
2022-09-23T08:10:20.742Z,3.45
2022-09-23T08:13:36.969Z,2.45
2022-09-23T08:16:12.833Z,4.43
2022-09-23T08:22:03.534Z,3.10
2022-09-23T08:24:33.315Z,3.05
2022-09-23T08:27:14.919Z,3.17
2022-09-23T08:29:44.565Z,2.88
2022-09-23T08:32:14.518Z,8.73
2022-09-23T08:34:41.563Z,2.90
2022-09-23T08:37:19.310Z,2.97
2022-09-23T08:39:49.547Z,2.83
2022-09-23T08:42:30.793Z,2.38
2022-09-23T08:45:09.675Z,3.90
2022-09-23T08:47:47.078Z,2.72
2022-09-23T08:50:33.577Z,2.80
2022-09-23T08:53:08.041Z,2.80
2022-09-23T08:59:43.820Z,2.90
2022-09-23T09:06:16.780Z,2.72
2022-09-23T09:09:33.494Z,2.70
2022-09-23T09:12:10.923Z,2.42
2022-09-23T09:14:58.529Z,3.22
2022-09-23T09:17:35.152Z,3.17
2022-09-23T09:20:36.069Z,2.80
2022-09-23T09:23:37.573Z,3.10
2022-09-23T09:26:06.272Z,2.17
2022-09-23T09:28:51.830Z,5.25
2022-09-23T09:31:33.250Z,2.60
2022-09-23T09:34:36.710Z,2.72
2022-09-23T09:37:12.811Z,2.60
2022-09-23T09:39:39.457Z,2.40
2022-09-23T09:42:07.463Z,2.90
2022-09-23T09:44:48.010Z,2.70
2022-09-23T09:47:28.584Z,2.53
2022-09-23T09:50:11.547Z,2.00
2022-09-23T09:52:38.213Z,2.85
2022-09-23T09:55:13.639Z,3.50
2022-09-23T09:57:49.658Z,2.25
2022-09-23T10:00:25.409Z,2.67
2022-09-23T10:02:55.448Z,3.58
2022-09-23T10:05:33.481Z,2.03
2022-09-23T10:08:21.144Z,1.98
2022-09-23T10:11:06.895Z,2.80
2022-09-23T10:13:33.821Z,2.28
2022-09-23T10:16:03.771Z,3.55
2022-09-23T10:18:47.206Z,1.88
2022-09-23T10:21:16.068Z,3.45
2022-09-23T10:23:52.470Z,2.10
2022-09-23T10:26:45.928Z,2.38
2022-09-23T10:29:33.223Z,3.25
2022-09-23T10:32:25.886Z,2.28
2022-09-23T10:35:24.433Z,2.42
2022-09-23T10:37:54.996Z,1.70
2022-09-23T10:41:02.116Z,2.63
2022-09-23T10:44:11.466Z,2.30
2022-09-23T10:47:02.669Z,1.80
2022-09-23T10:49:38.703Z,2.35
2022-09-23T10:52:36.455Z,1.70
2022-09-23T10:55:09.276Z,4.47
2022-09-23T10:57:44.877Z,2.85
2022-09-23T11:00:29.698Z,2.75
2022-09-23T11:03:09.336Z,2.55
2022-09-23T11:05:38.788Z,2.45
2022-09-23T11:08:24.955Z,1.90
2022-09-23T11:10:57.987Z,1.63
2022-09-23T11:13:42.842Z,3.03
2022-09-23T11:16:31.678Z,2.17
2022-09-23T11:19:15.428Z,2.08
2022-09-23T11:21:50.016Z,1.35
2022-09-23T11:24:25.511Z,3.15
2022-09-23T11:27:18.397Z,4.22
2022-09-23T11:30:12.598Z,2.60
2022-09-23T11:32:59.571Z,3.42
2022-09-23T11:35:35.687Z,1.52
2022-09-23T11:38:15.326Z,2.47
2022-09-23T11:40:49.283Z,1.20
2022-09-23T11:43:39.839Z,1.70
2022-09-23T11:46:32.205Z,1.48
2022-09-23T11:49:03.260Z,1.27
2022-09-23T11:51:39.797Z,1.40
2022-09-23T11:54:20.612Z,1.90
2022-09-23T11:56:56.968Z,1.73
2022-09-23T11:59:43.744Z,2.05
2022-09-23T12:02:30.802Z,2.25
2022-09-23T12:05:08.213Z,1.50
2022-09-23T12:07:56.672Z,1.40
2022-09-23T12:10:43.351Z,1.00
2022-09-23T12:13:20.654Z,2.00
2022-09-23T12:16:14.883Z,1.42
2022-09-23T12:19:01.342Z,1.30
2022-09-23T12:21:51.072Z,1.75
2022-09-23T12:24:36.147Z,1.70
2022-09-23T12:27:46.706Z,1.02
2022-09-23T12:30:24.993Z,2.03
2022-09-23T12:32:52.579Z,3.05
2022-09-23T12:35:37.738Z,2.45
2022-09-23T12:38:14.141Z,2.55
2022-09-23T12:40:43.987Z,1.08
2022-09-23T12:43:31.316Z,0.85
2022-09-23T12:46:27.253Z,1.63
2022-09-23T12:48:57.291Z,1.35
2022-09-23T12:51:34.793Z,2.17
2022-09-23T12:54:04.535Z,2.13
2022-09-23T12:56:31.332Z,2.75
2022-09-23T12:59:16.274Z,2.15
2022-09-23T13:01:49.006Z,2.88
2022-09-23T13:04:46.868Z,2.20
2022-09-23T13:07:17.621Z,3.38
2022-09-23T13:09:51.170Z,1.00
2022-09-23T13:12:39.959Z,0.90
2022-09-23T13:15:36.337Z,2.03
2022-09-23T13:18:21.153Z,2.08
2022-09-23T13:20:52.798Z,2.15
2022-09-23T13:23:20.310Z,2.63
2022-09-23T13:25:48.434Z,1.45
2022-09-23T13:28:53.599Z,1.50
2022-09-23T13:31:21.260Z,2.13
2022-09-23T13:33:59.561Z,1.25
2022-09-23T13:36:26.981Z,2.22
2022-09-23T13:38:53.799Z,1.45
2022-09-23T13:41:23.818Z,1.30
2022-09-23T13:43:59.018Z,1.35
2022-09-23T13:46:32.687Z,2.72
2022-09-23T13:48:59.505Z,1.23
2022-09-23T13:51:30.328Z,1.20
2022-09-23T13:54:02.159Z,1.05
2022-09-23T13:56:31.751Z,1.33
2022-09-23T13:59:23.753Z,1.73
2022-09-23T14:01:50.620Z,1.10
2022-09-23T14:04:25.312Z,1.58
2022-09-23T14:06:53.817Z,2.50
2022-09-23T14:09:24.428Z,1.90
2022-09-23T14:11:52.122Z,2.50
2022-09-23T14:14:29.286Z,1.75
2022-09-23T14:16:57.979Z,3.08
2022-09-23T14:19:25.912Z,1.80
2022-09-23T14:21:54.828Z,2.55
2022-09-23T14:24:32.255Z,1.83
2022-09-23T14:27:15.621Z,1.60
2022-09-23T14:29:47.855Z,3.65
2022-09-23T14:32:21.063Z,2.67
2022-09-23T14:34:50.694Z,1.40
2022-09-23T14:37:57.392Z,2.30
2022-09-23T14:40:53.712Z,2.20
2022-09-23T14:43:26.386Z,2.85
2022-09-23T14:45:56.148Z,2.13
2022-09-23T14:48:32.274Z,1.42
2022-09-23T14:51:05.969Z,1.70
2022-09-23T14:53:43.893Z,2.25
2022-09-23T14:56:19.855Z,2.20
2022-09-23T14:58:58.254Z,2.42
2022-09-23T15:01:31.215Z,1.85
2022-09-23T15:04:36.947Z,2.38
2022-09-23T15:07:09.453Z,1.23
2022-09-23T15:10:16.124Z,2.08
2022-09-23T15:12:46.250Z,3.42
2022-09-23T15:15:14.837Z,2.55
2022-09-23T15:17:41.557Z,3.05
2022-09-23T15:20:21.393Z,2.55
2022-09-23T15:22:50.759Z,4.50
2022-09-23T15:25:55.114Z,3.58
2022-09-23T15:28:25.047Z,2.58
2022-09-23T15:30:51.744Z,3.13
2022-09-23T15:33:36.687Z,3.92
2022-09-23T15:36:03.693Z,2.05
2022-09-23T15:38:30.874Z,0.95
2022-09-23T15:40:57.663Z,1.05
2022-09-23T15:43:26.816Z,2.03
2022-09-23T15:45:57.584Z,1.63
2022-09-23T15:48:32.158Z,3.38
2022-09-23T15:51:04.141Z,2.75
2022-09-23T15:53:31.528Z,2.55
2022-09-23T15:56:00.024Z,2.53
2022-09-23T19:51:48.290Z,5.35
2022-09-23T19:54:20.602Z,5.53
2022-09-23T19:56:48.648Z,4.15
2022-09-23T19:59:18.800Z,5.20
2022-09-23T20:01:46.413Z,6.00
2022-09-23T20:04:13.290Z,6.20
2022-09-23T20:06:42.576Z,6.47
2022-09-23T20:09:09.328Z,5.57
2022-09-23T20:11:36.133Z,6.13
2022-09-23T20:14:05.801Z,4.95
2022-09-23T20:16:35.936Z,5.40
2022-09-23T20:19:04.262Z,4.18
2022-09-23T20:21:31.433Z,5.07
2022-09-23T20:23:58.547Z,7.82
2022-09-23T20:26:44.196Z,8.38
2022-09-23T20:29:14.397Z,9.77
2022-09-23T20:31:41.521Z,9.73
2022-09-23T20:34:10.383Z,6.80
2022-09-23T20:36:37.411Z,5.35
2022-09-23T20:39:09.522Z,4.25
2022-09-23T20:41:38.975Z,6.80
2022-09-23T20:44:09.606Z,3.80
2022-09-23T20:46:36.564Z,4.70
2022-09-23T20:49:04.216Z,3.85
2022-09-23T20:51:33.162Z,4.50
2022-09-23T20:54:00.159Z,4.38
2022-09-23T20:56:27.510Z,5.63
2022-09-23T20:58:54.147Z,6.05
2022-09-23T21:01:21.423Z,7.32
2022-09-23T21:03:51.308Z,4.20
2022-09-23T21:06:19.434Z,4.40
2022-09-23T21:08:46.867Z,5.55
2022-09-23T21:11:16.260Z,4.55
2022-09-23T21:13:50.804Z,5.60
2022-09-23T21:16:19.744Z,4.80
2022-09-23T21:18:47.944Z,4.70
2022-09-23T21:21:15.085Z,4.82
2022-09-23T21:23:43.441Z,5.20
2022-09-23T21:26:12.497Z,5.07
2022-09-23T21:28:43.837Z,5.28
2022-09-23T21:31:25.674Z,4.65
2022-09-23T21:33:58.959Z,4.68
2022-09-23T21:36:27.377Z,4.78
2022-09-23T21:38:55.493Z,5.93
2022-09-23T21:41:23.582Z,5.45
2022-09-23T21:43:50.855Z,5.30
2022-09-23T21:46:20.548Z,5.30
2022-09-23T21:48:52.844Z,5.85
2022-09-23T21:51:20.879Z,5.97
2022-09-23T21:53:58.208Z,5.07
2022-09-23T21:56:27.495Z,5.03
2022-09-23T21:58:56.014Z,4.95
2022-09-23T22:01:24.960Z,4.25
2022-09-23T22:03:54.041Z,3.90
2022-09-23T22:06:27.098Z,4.10
2022-09-23T22:08:59.021Z,4.00
2022-09-23T22:11:49.872Z,4.38
2022-09-23T22:14:18.904Z,4.68
2022-09-23T22:16:48.503Z,4.95
2022-09-23T22:19:15.531Z,3.90
2022-09-23T22:21:44.004Z,3.80
2022-09-23T22:24:11.676Z,3.70
2022-09-23T22:26:49.689Z,4.60
2022-09-23T22:29:35.778Z,4.63
2022-09-23T22:32:24.518Z,4.28
2022-09-23T22:34:52.689Z,4.15
2022-09-23T22:37:27.896Z,4.38
2022-09-23T22:39:54.644Z,4.45
2022-09-23T22:42:22.258Z,3.90
2022-09-23T22:44:49.460Z,4.82
2022-09-23T22:47:17.876Z,4.80
2022-09-23T22:49:46.039Z,3.70
2022-09-23T22:52:15.089Z,3.90
2022-09-23T22:54:42.119Z,4.57
2022-09-23T22:57:09.784Z,4.38
2022-09-23T22:59:37.607Z,4.85
2022-09-23T23:02:06.466Z,4.53
2022-09-23T23:04:33.500Z,4.65
2022-09-23T23:07:00.126Z,5.40
2022-09-23T23:09:26.791Z,5.28
2022-09-23T23:11:53.399Z,7.57
2022-09-23T23:14:20.390Z,6.25
2022-09-23T23:16:47.555Z,4.43
2022-09-23T23:19:16.968Z,6.93
2022-09-23T23:21:45.311Z,5.15
2022-09-23T23:24:20.392Z,5.05
2022-09-23T23:26:47.396Z,4.97
2022-09-23T23:29:16.820Z,5.57
2022-09-23T23:31:43.992Z,7.50
2022-09-23T23:34:13.044Z,5.07
2022-09-23T23:36:40.267Z,4.97
2022-09-23T23:39:07.894Z,4.40
2022-09-23T23:41:34.644Z,4.95
2022-09-23T23:44:02.652Z,5.50
2022-09-23T23:46:31.134Z,5.53
2022-09-23T23:48:59.106Z,5.15
2022-09-23T23:51:26.952Z,5.38
2022-09-23T23:53:54.595Z,5.65
2022-09-23T23:56:23.315Z,6.30
2022-09-23T23:58:56.839Z,6.13
